Time;durP1;ratioP1;P1;durP2;ratioP2;P2;SDS_P1;SDS_P2;PMS_P1;PMS_P2;Temp;Humidity;BMP_temperature;BMP_pressure;BME280_temperature;BME280_humidity;BME280_pressure;Samples;Min_cycle;Max_cycle;Signal;HPM_P1;HPM_P2
2022/10/30 00:00:04;;;;;;;23.27;12.98;;;14.00;99.90;;;;;;5080458;28;20771;-77
2022/10/30 00:02:30;;;;;;;21.60;12.93;;;14.00;99.90;;;;;;5072103;28;20410;-77
2022/10/30 00:04:55;;;;;;;24.50;12.63;;;14.00;99.90;;;;;;5089534;28;20410;-77
2022/10/30 00:07:21;;;;;;;23.27;12.37;;;14.00;99.90;;;;;;5090036;28;20404;-77
2022/10/30 00:09:47;;;;;;;24.75;13.15;;;14.00;99.90;;;;;;5072185;28;20437;-77
2022/10/30 00:12:12;;;;;;;24.67;13.03;;;14.00;99.90;;;;;;5089778;28;20383;-77
2022/10/30 00:14:38;;;;;;;24.35;12.25;;;13.90;99.90;;;;;;5096209;28;20393;-77
2022/10/30 00:17:04;;;;;;;30.20;22.37;;;13.90;99.90;;;;;;5093056;28;20889;-76
2022/10/30 00:19:29;;;;;;;25.97;17.40;;;13.90;99.90;;;;;;5091244;28;20492;-77
2022/10/30 00:21:56;;;;;;;23.02;14.35;;;13.90;99.90;;;;;;5089543;28;20401;-77
2022/10/30 00:24:23;;;;;;;25.93;13.63;;;13.90;99.90;;;;;;5088903;28;20820;-76
2022/10/30 00:26:48;;;;;;;23.42;12.43;;;13.90;99.90;;;;;;5088938;28;20412;-77
2022/10/30 00:29:14;;;;;;;24.10;12.23;;;13.90;99.90;;;;;;5089986;28;20433;-76
2022/10/30 00:31:40;;;;;;;23.63;12.48;;;13.90;99.90;;;;;;5089858;28;20519;-77
2022/10/30 00:34:06;;;;;;;21.67;12.25;;;13.90;99.90;;;;;;5089562;28;20448;-77
2022/10/30 00:36:32;;;;;;;27.02;12.90;;;13.80;99.90;;;;;;5089394;28;20421;-76
2022/10/30 00:38:57;;;;;;;24.93;12.10;;;13.90;99.90;;;;;;5089610;28;20904;-77
2022/10/30 00:41:23;;;;;;;23.58;12.32;;;13.90;99.90;;;;;;5089522;28;20420;-77
2022/10/30 00:43:49;;;;;;;20.90;11.80;;;13.90;99.90;;;;;;5089435;28;20406;-77
2022/10/30 00:46:35;;;;;;;26.03;12.57;;;13.80;99.90;;;;;;5087858;28;20432;-76
2022/10/30 00:49:11;;;;;;;21.35;12.77;;;13.80;99.90;;;;;;5089305;28;20912;-77
2022/10/30 00:51:40;;;;;;;24.15;12.52;;;13.90;99.90;;;;;;5089199;28;20434;-77
2022/10/30 00:54:07;;;;;;;24.40;12.77;;;13.80;99.90;;;;;;5088796;28;20406;-76
2022/10/30 00:56:34;;;;;;;22.55;12.05;;;13.80;99.90;;;;;;5088170;28;20398;-76
2022/10/30 00:59:09;;;;;;;23.52;12.25;;;13.80;99.90;;;;;;5080982;28;20400;-77
2022/10/30 01:01:38;;;;;;;20.97;12.10;;;13.80;99.90;;;;;;5089780;28;20476;-77
2022/10/30 01:04:06;;;;;;;22.77;12.00;;;13.80;99.90;;;;;;5088869;28;21227;-76
2022/10/30 01:06:34;;;;;;;27.17;12.13;;;13.80;99.90;;;;;;5089177;28;20485;-77
2022/10/30 01:09:01;;;;;;;23.20;12.60;;;13.80;99.90;;;;;;5089151;28;20433;-76
2022/10/30 01:11:26;;;;;;;24.48;12.52;;;13.80;99.90;;;;;;5089396;28;20401;-77
2022/10/30 01:13:54;;;;;;;21.13;11.52;;;13.80;99.90;;;;;;5088847;28;20460;-76
2022/10/30 01:16:44;;;;;;;24.10;11.85;;;13.70;99.90;;;;;;5087026;28;20452;-76
2022/10/30 01:19:18;;;;;;;23.40;11.65;;;13.70;99.90;;;;;;5087984;28;20406;-76
2022/10/30 01:21:55;;;;;;;20.83;11.88;;;13.70;99.90;;;;;;5087071;28;20414;-76
2022/10/30 01:24:30;;;;;;;20.60;12.00;;;13.70;99.90;;;;;;5089207;28;20402;-77
2022/10/30 01:27:18;;;;;;;21.17;12.48;;;13.70;99.90;;;;;;5080063;28;20468;-76
2022/10/30 01:30:19;;;;;;;24.40;12.00;;;13.70;99.90;;;;;;5080440;28;20513;-76
2022/10/30 01:32:53;;;;;;;21.50;11.88;;;13.70;99.90;;;;;;5088146;28;20900;-76
2022/10/30 01:35:52;;;;;;;23.23;12.40;;;13.60;99.90;;;;;;5087625;28;20402;-77
2022/10/30 01:38:24;;;;;;;25.63;12.27;;;13.60;99.90;;;;;;5080589;28;20434;-76
2022/10/30 01:40:49;;;;;;;23.75;12.52;;;13.60;99.90;;;;;;5080072;28;20466;-76
2022/10/30 01:43:15;;;;;;;23.05;12.50;;;13.60;99.90;;;;;;5088938;28;20540;-76
2022/10/30 01:46:19;;;;;;;25.53;12.40;;;13.60;99.90;;;;;;5087033;28;20406;-76
2022/10/30 01:49:00;;;;;;;20.75;13.00;;;13.50;99.90;;;;;;5086873;28;20430;-76
2022/10/30 01:52:00;;;;;;;20.50;11.95;;;13.50;99.90;;;;;;5087705;28;20446;-76
2022/10/30 01:55:19;;;;;;;22.65;12.65;;;13.50;99.90;;;;;;5088316;28;20420;-76
2022/10/30 01:58:00;;;;;;;26.02;12.70;;;13.50;99.90;;;;;;5025694;28;20417;-76
2022/10/30 02:00:27;;;;;;;25.20;12.52;;;13.40;99.90;;;;;;5084439;28;20493;-76
2022/10/30 02:02:53;;;;;;;19.42;12.07;;;13.40;99.90;;;;;;5086722;28;20418;-76
2022/10/30 02:05:42;;;;;;;22.60;12.63;;;13.40;99.90;;;;;;5087341;28;20410;-77
2022/10/30 02:08:08;;;;;;;23.60;12.70;;;13.40;99.90;;;;;;5089380;28;20405;-76
2022/10/30 02:10:37;;;;;;;21.90;12.40;;;13.40;99.90;;;;;;5088549;28;20543;-76
2022/10/30 02:13:03;;;;;;;22.58;12.40;;;13.40;99.90;;;;;;5088839;28;20974;-76
2022/10/30 02:15:30;;;;;;;22.40;12.17;;;13.40;99.90;;;;;;5088159;28;20543;-76
2022/10/30 02:17:56;;;;;;;22.85;12.75;;;13.30;99.90;;;;;;5088034;28;20752;-76
2022/10/30 02:20:23;;;;;;;22.15;12.13;;;13.40;99.90;;;;;;5088368;28;20466;-76
2022/10/30 02:22:48;;;;;;;21.63;12.55;;;13.40;99.90;;;;;;5087392;28;20406;-76
2022/10/30 02:25:14;;;;;;;22.00;12.60;;;13.40;99.90;;;;;;5086878;28;20413;-77
2022/10/30 02:27:40;;;;;;;20.35;12.48;;;13.30;99.90;;;;;;5088653;28;20395;-76
2022/10/30 02:30:06;;;;;;;25.37;12.90;;;13.40;99.90;;;;;;5088228;28;20425;-76
2022/10/30 02:32:32;;;;;;;23.53;12.07;;;13.40;99.90;;;;;;5087040;28;20406;-77
2022/10/30 02:34:58;;;;;;;29.02;12.50;;;13.30;99.90;;;;;;5086962;28;20470;-76
2022/10/30 02:37:23;;;;;;;21.63;11.93;;;13.30;99.90;;;;;;5088507;28;20449;-76
2022/10/30 02:39:49;;;;;;;27.30;12.75;;;13.40;99.90;;;;;;5093163;28;20420;-76
2022/10/30 02:42:15;;;;;;;23.23;12.07;;;13.40;99.90;;;;;;5088097;28;20398;-76
2022/10/30 02:44:41;;;;;;;22.15;12.07;;;13.40;99.90;;;;;;5087784;28;20398;-76
2022/10/30 02:47:07;;;;;;;24.10;12.03;;;13.30;99.90;;;;;;5092466;28;20401;-76
2022/10/30 02:49:32;;;;;;;21.65;12.13;;;13.30;99.90;;;;;;5097892;28;20494;-76
2022/10/30 02:51:58;;;;;;;24.77;12.33;;;13.40;99.90;;;;;;5097240;28;20799;-77
2022/10/30 02:54:24;;;;;;;23.58;12.05;;;13.40;99.90;;;;;;5097553;28;20402;-76
2022/10/30 02:56:50;;;;;;;24.67;12.18;;;13.40;99.90;;;;;;5092158;28;20490;-77
2022/10/30 02:59:16;;;;;;;22.52;11.48;;;13.40;99.90;;;;;;5090856;28;20436;-76
2022/10/30 03:01:42;;;;;;;24.73;12.63;;;13.30;99.90;;;;;;5091498;28;20434;-76
2022/10/30 03:04:07;;;;;;;22.35;11.75;;;13.40;99.90;;;;;;5090733;28;20409;-76
2022/10/30 03:06:33;;;;;;;22.50;12.20;;;13.40;99.90;;;;;;5082718;28;20407;-76
2022/10/30 03:08:59;;;;;;;22.95;12.27;;;13.40;99.90;;;;;;5084936;28;20771;-77
2022/10/30 03:11:24;;;;;;;22.47;11.63;;;13.30;99.90;;;;;;5090700;28;20409;-77
2022/10/30 03:13:50;;;;;;;25.13;12.23;;;13.30;99.90;;;;;;5087245;28;20480;-76
2022/10/30 03:16:22;;;;;;;21.57;11.47;;;13.30;99.90;;;;;;5090084;28;20899;-76
2022/10/30 03:18:48;;;;;;;21.55;12.27;;;13.20;99.90;;;;;;5088924;28;20445;-76
2022/10/30 03:21:17;;;;;;;24.20;12.00;;;13.20;99.90;;;;;;5090410;28;20409;-74
2022/10/30 03:23:43;;;;;;;22.20;12.18;;;13.20;99.90;;;;;;5090211;28;20771;-74
2022/10/30 03:26:09;;;;;;;22.88;12.10;;;13.20;99.90;;;;;;5087883;28;20883;-74
2022/10/30 03:28:35;;;;;;;21.92;12.43;;;13.20;99.90;;;;;;5089072;28;20498;-74
2022/10/30 03:31:09;;;;;;;22.87;12.43;;;13.20;99.90;;;;;;5073412;28;20404;-74
2022/10/30 03:33:36;;;;;;;28.50;12.60;;;13.20;99.90;;;;;;5101023;28;20543;-74
2022/10/30 03:36:03;;;;;;;22.38;12.38;;;13.10;99.90;;;;;;5091632;28;20398;-74
2022/10/30 03:38:29;;;;;;;20.85;12.13;;;13.10;99.90;;;;;;5091189;28;20406;-74
2022/10/30 03:40:55;;;;;;;21.40;12.15;;;13.10;99.90;;;;;;5091114;28;20760;-74
2022/10/30 03:43:21;;;;;;;19.33;11.93;;;13.10;99.90;;;;;;5091193;28;20402;-74
2022/10/30 03:45:48;;;;;;;25.08;12.77;;;13.10;99.90;;;;;;5101235;28;20401;-74
2022/10/30 03:48:15;;;;;;;25.70;13.25;;;13.00;99.90;;;;;;5088905;28;20410;-73
2022/10/30 03:50:40;;;;;;;26.13;13.00;;;13.00;99.90;;;;;;5091499;28;20395;-74
2022/10/30 03:53:06;;;;;;;24.50;12.55;;;13.00;99.90;;;;;;5090318;28;20406;-74
2022/10/30 03:55:31;;;;;;;27.03;13.20;;;12.90;99.90;;;;;;5090516;28;20429;-74
2022/10/30 03:57:57;;;;;;;21.25;12.88;;;12.90;99.90;;;;;;5088755;28;21169;-73
2022/10/30 04:00:23;;;;;;;23.20;13.10;;;12.90;99.90;;;;;;5096449;28;20404;-74
2022/10/30 04:02:50;;;;;;;26.52;13.05;;;12.90;99.90;;;;;;5093408;28;20398;-74
2022/10/30 04:05:18;;;;;;;26.10;13.52;;;13.00;99.90;;;;;;5090452;28;20428;-73
2022/10/30 04:07:44;;;;;;;26.95;12.85;;;12.90;99.90;;;;;;5089271;28;20404;-74
2022/10/30 04:10:10;;;;;;;23.17;13.13;;;12.90;99.90;;;;;;5090402;28;20417;-74
2022/10/30 04:12:36;;;;;;;24.60;12.93;;;12.90;99.90;;;;;;5092685;28;20390;-74
2022/10/30 04:15:02;;;;;;;23.53;13.17;;;12.90;99.90;;;;;;5089272;28;20451;-74
2022/10/30 04:17:28;;;;;;;22.90;12.57;;;12.80;99.90;;;;;;5099500;28;21415;-74
2022/10/30 04:19:54;;;;;;;26.93;13.43;;;12.80;99.90;;;;;;5090034;28;20406;-74
2022/10/30 04:22:19;;;;;;;25.08;13.25;;;12.80;99.90;;;;;;5085806;28;20411;-74
2022/10/30 04:24:47;;;;;;;22.40;13.07;;;12.80;99.90;;;;;;5081098;28;20410;-74
2022/10/30 04:27:13;;;;;;;24.45;12.38;;;12.80;99.90;;;;;;5089946;28;20583;-73
2022/10/30 04:29:41;;;;;;;21.17;12.85;;;12.70;99.90;;;;;;5088129;28;20969;-74
2022/10/30 04:32:07;;;;;;;26.73;13.88;;;12.70;99.90;;;;;;5088368;28;20416;-74
2022/10/30 04:34:33;;;;;;;24.05;12.82;;;12.70;99.90;;;;;;5088876;28;20393;-74
2022/10/30 04:36:58;;;;;;;25.40;13.45;;;12.70;99.90;;;;;;5088180;28;20467;-73
2022/10/30 04:39:24;;;;;;;26.20;13.93;;;12.70;99.90;;;;;;5089655;28;20489;-74
2022/10/30 04:41:49;;;;;;;27.23;14.10;;;12.60;99.90;;;;;;5089722;28;20394;-74
2022/10/30 04:44:15;;;;;;;26.37;13.43;;;12.60;99.90;;;;;;5088765;28;20759;-74
2022/10/30 04:46:41;;;;;;;24.17;12.73;;;12.60;99.90;;;;;;5088517;28;20427;-74
2022/10/30 04:49:07;;;;;;;25.00;13.47;;;12.60;99.90;;;;;;5089735;28;20515;-74
2022/10/30 04:51:32;;;;;;;21.73;12.65;;;12.60;99.90;;;;;;5088814;28;20471;-74
2022/10/30 04:53:58;;;;;;;24.67;13.17;;;12.50;99.90;;;;;;5089466;28;20434;-74
2022/10/30 04:56:24;;;;;;;25.23;13.52;;;12.50;99.90;;;;;;5088416;28;20409;-74
2022/10/30 04:58:49;;;;;;;23.00;12.52;;;12.50;99.90;;;;;;5089964;28;20914;-73
2022/10/30 05:01:15;;;;;;;21.53;12.47;;;12.50;99.90;;;;;;5091085;28;20895;-74
2022/10/30 05:03:40;;;;;;;24.02;12.90;;;12.40;99.90;;;;;;5071333;28;20403;-74
2022/10/30 05:06:23;;;;;;;21.40;12.60;;;12.50;99.90;;;;;;5088014;28;20495;-74
2022/10/30 05:08:49;;;;;;;25.60;12.73;;;12.50;99.90;;;;;;5088480;28;20429;-74
2022/10/30 05:11:16;;;;;;;24.55;13.15;;;12.40;99.90;;;;;;5088479;28;20814;-74
2022/10/30 05:13:41;;;;;;;23.75;14.00;;;12.40;99.90;;;;;;5086687;28;20535;-74
2022/10/30 05:16:07;;;;;;;27.10;14.30;;;12.40;99.90;;;;;;5091364;28;20487;-73
2022/10/30 05:18:32;;;;;;;26.30;14.07;;;12.40;99.90;;;;;;5093791;28;20478;-74
2022/10/30 05:20:58;;;;;;;22.70;13.67;;;12.40;99.90;;;;;;5086876;28;20413;-74
2022/10/30 05:23:24;;;;;;;26.08;13.70;;;12.30;99.90;;;;;;5086219;28;20510;-74
2022/10/30 05:25:49;;;;;;;26.57;14.40;;;12.30;99.90;;;;;;5088198;28;20397;-73
2022/10/30 05:28:15;;;;;;;27.42;14.88;;;12.30;99.90;;;;;;5089081;28;21021;-74
2022/10/30 05:30:41;;;;;;;29.02;14.65;;;12.30;99.90;;;;;;5087230;28;20855;-73
2022/10/30 05:33:10;;;;;;;26.90;15.43;;;12.40;99.90;;;;;;5070958;28;20492;-74
2022/10/30 05:35:36;;;;;;;26.83;14.43;;;12.40;99.90;;;;;;5089030;28;20484;-74
2022/10/30 05:38:05;;;;;;;26.42;14.40;;;12.40;99.90;;;;;;5087210;28;20414;-74
2022/10/30 05:40:31;;;;;;;28.77;15.48;;;12.40;99.90;;;;;;5081589;28;20451;-74
2022/10/30 05:42:57;;;;;;;29.50;15.23;;;12.40;99.90;;;;;;5088515;28;20405;-74
2022/10/30 05:45:23;;;;;;;27.67;14.85;;;12.40;99.90;;;;;;5087818;28;20413;-74
2022/10/30 05:47:57;;;;;;;30.73;15.60;;;12.40;99.90;;;;;;5093379;28;20758;-74
2022/10/30 05:50:23;;;;;;;28.67;15.18;;;12.40;99.90;;;;;;5076335;28;20500;-74
2022/10/30 05:52:48;;;;;;;27.15;14.75;;;12.40;99.90;;;;;;5088652;28;20502;-73
2022/10/30 05:55:14;;;;;;;27.33;15.13;;;12.30;99.90;;;;;;5086999;28;20402;-74
2022/10/30 05:57:40;;;;;;;31.70;15.27;;;12.30;99.90;;;;;;5087002;28;20417;-74
2022/10/30 06:00:06;;;;;;;29.60;15.05;;;12.30;99.90;;;;;;5091982;28;20471;-73
2022/10/30 06:02:32;;;;;;;27.55;15.55;;;12.30;99.90;;;;;;5091955;28;20398;-74
2022/10/30 06:04:57;;;;;;;27.35;14.88;;;12.30;99.90;;;;;;5088802;28;20410;-74
2022/10/30 06:07:23;;;;;;;28.57;15.63;;;12.30;99.90;;;;;;5088689;28;20434;-74
2022/10/30 06:09:48;;;;;;;27.90;15.77;;;12.30;99.90;;;;;;5086703;28;20449;-74
2022/10/30 06:12:14;;;;;;;26.97;15.97;;;12.30;99.90;;;;;;5087984;28;20661;-74
2022/10/30 06:14:40;;;;;;;29.52;15.88;;;12.30;99.90;;;;;;5088333;28;20398;-74
2022/10/30 06:17:05;;;;;;;25.50;14.47;;;12.20;99.90;;;;;;5086884;28;20394;-73
2022/10/30 06:19:31;;;;;;;29.17;15.73;;;12.20;99.90;;;;;;5088211;28;20401;-74
2022/10/30 06:21:57;;;;;;;29.47;15.40;;;12.20;99.90;;;;;;5092144;28;20485;-74
2022/10/30 06:24:22;;;;;;;30.30;15.35;;;12.20;99.90;;;;;;5090994;28;20406;-74
2022/10/30 06:26:49;;;;;;;29.37;16.00;;;12.20;99.90;;;;;;5092124;28;20398;-73
2022/10/30 06:29:15;;;;;;;26.63;15.18;;;12.20;99.90;;;;;;5092563;28;20444;-73
2022/10/30 06:31:41;;;;;;;31.70;15.93;;;12.20;99.90;;;;;;5091852;28;20487;-73
2022/10/30 06:34:06;;;;;;;33.77;15.40;;;12.20;99.90;;;;;;5099097;28;20749;-74
2022/10/30 06:36:32;;;;;;;32.63;16.00;;;12.20;99.90;;;;;;5090904;28;20406;-73
2022/10/30 06:38:57;;;;;;;27.07;15.33;;;12.20;99.90;;;;;;5090989;28;20737;-74
2022/10/30 06:41:23;;;;;;;30.80;16.33;;;12.20;99.90;;;;;;5091912;28;20424;-74
2022/10/30 06:43:49;;;;;;;30.13;15.67;;;12.10;99.90;;;;;;5079120;28;20760;-74
2022/10/30 06:46:14;;;;;;;29.13;16.05;;;12.20;99.90;;;;;;5090438;28;20389;-73
2022/10/30 06:48:40;;;;;;;26.70;15.43;;;12.20;99.90;;;;;;5093804;28;20479;-74
2022/10/30 06:51:05;;;;;;;30.23;16.25;;;12.20;99.90;;;;;;5091630;28;21035;-74
2022/10/30 06:53:31;;;;;;;28.70;15.23;;;12.20;99.90;;;;;;5091320;28;20401;-74
2022/10/30 06:55:58;;;;;;;28.95;15.00;;;12.20;99.90;;;;;;5091658;28;20467;-74
2022/10/30 06:58:24;;;;;;;30.90;15.90;;;12.20;99.90;;;;;;5090493;28;20737;-74
2022/10/30 07:00:50;;;;;;;30.25;17.00;;;12.20;99.90;;;;;;5091161;28;20527;-74
2022/10/30 07:03:16;;;;;;;28.03;15.83;;;12.20;99.90;;;;;;5091391;28;20479;-76
2022/10/30 07:05:41;;;;;;;33.35;16.58;;;12.20;99.90;;;;;;5091270;28;20394;-76
2022/10/30 07:08:07;;;;;;;29.45;16.25;;;12.20;99.90;;;;;;5090985;28;20455;-76
2022/10/30 07:10:33;;;;;;;28.97;16.57;;;12.20;99.90;;;;;;5089629;28;20445;-76
2022/10/30 07:12:58;;;;;;;28.45;16.02;;;12.20;99.90;;;;;;5081657;28;20398;-76
2022/10/30 07:15:25;;;;;;;31.67;15.70;;;12.30;99.90;;;;;;5091374;28;20447;-77
2022/10/30 07:17:55;;;;;;;29.50;16.20;;;12.30;99.90;;;;;;5090515;28;20401;-76
2022/10/30 07:20:22;;;;;;;27.83;16.17;;;12.30;99.90;;;;;;5091380;28;20412;-76
2022/10/30 07:22:47;;;;;;;29.63;15.90;;;12.30;99.90;;;;;;5079558;28;20394;-76
2022/10/30 07:25:13;;;;;;;30.63;15.98;;;12.30;99.90;;;;;;5099106;28;20911;-76
2022/10/30 07:27:43;;;;;;;27.77;16.60;;;12.30;99.90;;;;;;5091668;28;20413;-76
2022/10/30 07:30:11;;;;;;;29.60;15.55;;;12.40;99.90;;;;;;5089550;28;20434;-76
2022/10/30 07:32:36;;;;;;;32.63;16.60;;;12.40;99.90;;;;;;5091527;28;20423;-76
2022/10/30 07:35:02;;;;;;;28.23;16.13;;;12.40;99.90;;;;;;5090577;28;20751;-76
2022/10/30 07:37:28;;;;;;;28.80;16.08;;;12.50;99.90;;;;;;5089697;28;20406;-76
2022/10/30 07:39:54;;;;;;;26.25;15.68;;;12.50;99.90;;;;;;5089008;28;20489;-76
2022/10/30 07:42:20;;;;;;;27.42;15.65;;;12.50;99.90;;;;;;5091563;28;20505;-76
2022/10/30 07:44:47;;;;;;;32.33;15.85;;;12.60;99.90;;;;;;5090304;28;20449;-76
2022/10/30 07:47:13;;;;;;;28.92;16.42;;;12.60;99.90;;;;;;5090506;28;20453;-76
2022/10/30 07:49:39;;;;;;;28.33;16.27;;;12.60;99.90;;;;;;5090879;28;20433;-76
2022/10/30 07:52:04;;;;;;;28.35;15.98;;;12.70;99.90;;;;;;5090939;28;20418;-77
2022/10/30 07:54:30;;;;;;;28.90;16.43;;;12.70;99.90;;;;;;5090811;28;20420;-76
2022/10/30 07:56:57;;;;;;;32.47;17.02;;;12.80;99.90;;;;;;5090084;28;20401;-76
2022/10/30 07:59:25;;;;;;;29.35;16.58;;;12.80;99.90;;;;;;5090822;28;20406;-76
2022/10/30 08:01:51;;;;;;;32.30;16.88;;;12.80;99.90;;;;;;5089060;28;20410;-76
2022/10/30 08:04:16;;;;;;;28.57;16.50;;;12.90;99.90;;;;;;5090633;28;20406;-76
2022/10/30 08:06:42;;;;;;;30.65;16.48;;;12.90;99.90;;;;;;5077518;28;20431;-76
2022/10/30 08:09:08;;;;;;;28.20;15.77;;;12.90;99.90;;;;;;5074370;28;20785;-76
2022/10/30 08:11:34;;;;;;;30.63;16.83;;;13.00;99.90;;;;;;5082992;28;20415;-76
2022/10/30 08:14:00;;;;;;;26.15;16.30;;;13.00;99.90;;;;;;5074858;28;20495;-77
2022/10/30 08:16:25;;;;;;;27.88;16.35;;;13.10;99.90;;;;;;5073961;28;20820;-76
2022/10/30 08:18:51;;;;;;;28.77;16.70;;;13.20;99.90;;;;;;5070118;28;20957;-76
2022/10/30 08:21:17;;;;;;;29.95;16.98;;;13.20;99.90;;;;;;5082801;28;20768;-76
2022/10/30 08:23:42;;;;;;;29.07;17.17;;;13.30;99.90;;;;;;5072012;28;20427;-76
2022/10/30 08:26:08;;;;;;;26.50;16.33;;;13.40;99.90;;;;;;5075485;28;20434;-76
2022/10/30 08:28:34;;;;;;;29.43;17.33;;;13.40;99.90;;;;;;5064564;28;20401;-76
2022/10/30 08:31:00;;;;;;;30.33;16.58;;;13.50;99.90;;;;;;5076693;28;20419;-76
2022/10/30 08:33:26;;;;;;;28.98;16.65;;;13.60;99.90;;;;;;5071381;28;20400;-76
2022/10/30 08:35:55;;;;;;;30.50;16.70;;;13.70;99.90;;;;;;5074997;28;20418;-76
2022/10/30 08:38:21;;;;;;;30.58;16.95;;;13.70;99.90;;;;;;5074519;28;20819;-76
2022/10/30 08:40:47;;;;;;;28.83;16.52;;;13.80;99.90;;;;;;5071941;28;20939;-76
2022/10/30 08:43:13;;;;;;;29.50;16.80;;;13.90;99.90;;;;;;5071975;28;20408;-76
2022/10/30 08:45:39;;;;;;;29.42;17.10;;;13.90;99.90;;;;;;5069605;28;20423;-76
2022/10/30 08:48:06;;;;;;;31.37;16.90;;;14.00;99.90;;;;;;5085727;28;20404;-76
2022/10/30 08:50:34;;;;;;;26.50;16.55;;;14.10;99.90;;;;;;5070478;28;20435;-75
2022/10/30 08:53:01;;;;;;;27.67;16.13;;;14.10;99.90;;;;;;5077095;28;20415;-75
2022/10/30 08:55:27;;;;;;;27.52;16.30;;;14.20;99.90;;;;;;5073710;28;20526;-75
2022/10/30 08:57:53;;;;;;;32.47;17.02;;;14.30;99.90;;;;;;5072908;28;21764;-76
2022/10/30 09:00:18;;;;;;;24.67;16.10;;;14.30;99.90;;;;;;5081495;28;20417;-75
2022/10/30 09:02:44;;;;;;;29.98;16.25;;;14.40;99.90;;;;;;5087867;28;20441;-75
2022/10/30 09:05:10;;;;;;;30.77;16.70;;;14.50;99.90;;;;;;5092685;28;20410;-76
2022/10/30 09:07:35;;;;;;;29.40;16.65;;;14.60;99.90;;;;;;5086583;28;20424;-75
2022/10/30 09:10:02;;;;;;;26.47;16.33;;;14.70;99.90;;;;;;5089354;28;20428;-75
2022/10/30 09:12:28;;;;;;;27.35;16.67;;;14.70;99.90;;;;;;5089233;28;20413;-76
2022/10/30 09:14:53;;;;;;;28.90;16.30;;;14.80;99.90;;;;;;5089234;28;20406;-75
2022/10/30 09:17:19;;;;;;;25.83;15.32;;;14.90;99.90;;;;;;5074448;28;21142;-76
2022/10/30 09:19:44;;;;;;;29.20;14.80;;;14.90;99.90;;;;;;5082539;28;20406;-76
2022/10/30 09:22:10;;;;;;;30.02;15.63;;;15.00;99.90;;;;;;5089398;28;20420;-77
2022/10/30 09:24:37;;;;;;;21.83;13.70;;;15.30;99.90;;;;;;5079552;28;20422;-77
2022/10/30 09:27:03;;;;;;;19.15;11.30;;;15.90;99.90;;;;;;5088489;28;20405;-77
2022/10/30 09:29:30;;;;;;;19.55;11.13;;;16.70;99.90;;;;;;5088739;28;20799;-77
2022/10/30 09:31:56;;;;;;;18.25;10.45;;;17.70;99.90;;;;;;5088171;28;20513;-77
2022/10/30 09:34:22;;;;;;;16.75;10.23;;;18.70;99.90;;;;;;5089570;28;20815;-77
2022/10/30 09:36:48;;;;;;;22.00;10.70;;;19.60;99.90;;;;;;5088617;28;20406;-77
2022/10/30 09:39:14;;;;;;;17.50;9.75;;;20.50;99.90;;;;;;5088811;28;20413;-77
2022/10/30 09:42:15;;;;;;;17.85;9.27;;;21.20;99.90;;;;;;5087241;28;20414;-77
2022/10/30 09:44:55;;;;;;;16.70;9.50;;;22.00;99.90;;;;;;5088682;28;20407;-77
2022/10/30 09:47:40;;;;;;;15.65;9.45;;;22.60;99.90;;;;;;5088512;28;20505;-77
2022/10/30 09:50:41;;;;;;;15.70;9.48;;;23.10;99.90;;;;;;5088572;28;20491;-77
2022/10/30 09:53:12;;;;;;;17.30;8.90;;;23.70;99.90;;;;;;5044818;28;20573;-77
2022/10/30 09:55:50;;;;;;;16.15;8.98;;;24.00;99.90;;;;;;5079055;28;20413;-77
2022/10/30 09:58:49;;;;;;;16.90;8.40;;;24.30;99.90;;;;;;5084179;28;20428;-77
2022/10/30 10:01:27;;;;;;;16.90;8.80;;;24.60;99.90;;;;;;5075861;28;20439;-77
2022/10/30 10:04:20;;;;;;;18.30;8.77;;;24.80;99.90;;;;;;5080177;28;20435;-77
2022/10/30 10:06:49;;;;;;;17.40;8.82;;;25.10;99.90;;;;;;5077945;28;20421;-77
2022/10/30 10:09:19;;;;;;;16.90;8.50;;;25.40;99.90;;;;;;5080035;28;20818;-77
2022/10/30 10:12:14;;;;;;;16.00;8.17;;;25.60;99.90;;;;;;5080753;28;20913;-78
2022/10/30 10:14:45;;;;;;;14.63;7.80;;;25.90;99.90;;;;;;5072802;28;20757;-77
2022/10/30 10:17:20;;;;;;;16.20;8.32;;;26.30;99.90;;;;;;5079877;28;20477;-78
2022/10/30 10:19:58;;;;;;;19.42;7.93;;;26.50;99.90;;;;;;5087320;28;20409;-77
2022/10/30 10:22:49;;;;;;;15.88;7.53;;;26.80;99.90;;;;;;5084967;28;20418;-77
2022/10/30 10:25:19;;;;;;;14.02;7.80;;;27.00;99.90;;;;;;5085497;28;20452;-77
2022/10/30 10:28:14;;;;;;;14.77;8.10;;;26.70;99.90;;;;;;5082071;28;20468;-78
2022/10/30 10:30:54;;;;;;;17.02;7.82;;;26.10;99.90;;;;;;5083666;28;20437;-77
2022/10/30 10:33:38;;;;;;;16.70;8.00;;;25.60;99.90;;;;;;5086068;28;20481;-77
2022/10/30 10:36:27;;;;;;;14.50;7.97;;;25.00;99.90;;;;;;5087626;28;20402;-77
2022/10/30 10:39:29;;;;;;;17.52;8.50;;;24.60;99.90;;;;;;5080916;28;20456;-77
2022/10/30 10:42:10;;;;;;;15.18;7.55;;;24.30;99.90;;;;;;5085112;28;20421;-77
2022/10/30 10:44:49;;;;;;;14.73;7.90;;;24.40;99.90;;;;;;5082224;28;20429;-77
2022/10/30 10:47:24;;;;;;;14.45;7.97;;;24.60;99.90;;;;;;5080414;28;20969;-77
2022/10/30 10:50:14;;;;;;;14.10;7.40;;;24.60;99.90;;;;;;5082127;28;20418;-78
2022/10/30 10:52:48;;;;;;;13.50;7.07;;;25.00;99.90;;;;;;5078137;28;20450;-77
2022/10/30 10:55:18;;;;;;;12.67;7.03;;;25.70;99.90;;;;;;5086408;28;20414;-78
2022/10/30 10:57:45;;;;;;;13.88;6.70;;;26.40;99.90;;;;;;5082938;28;21332;-77
2022/10/30 11:00:19;;;;;;;15.25;7.10;;;26.90;99.90;;;;;;5069808;28;20783;-78
2022/10/30 11:02:48;;;;;;;13.73;7.32;;;27.20;99.90;;;;;;5087635;28;20420;-78
2022/10/30 11:05:39;;;;;;;13.13;7.80;;;27.60;99.90;;;;;;5085528;28;21014;-77
2022/10/30 11:08:28;;;;;;;16.15;7.75;;;28.10;99.90;;;;;;5084993;28;20410;-77
2022/10/30 11:11:05;;;;;;;15.27;7.60;;;28.20;99.90;;;;;;5075431;28;20769;-77
2022/10/30 11:13:39;;;;;;;16.92;7.60;;;28.30;99.90;;;;;;5087650;28;20429;-76
2022/10/30 11:16:28;;;;;;;17.33;7.78;;;28.60;99.90;;;;;;5092660;28;20408;-76
2022/10/30 11:19:01;;;;;;;12.27;6.90;;;28.70;99.90;;;;;;5091482;28;20421;-76
2022/10/30 11:21:30;;;;;;;11.13;6.88;;;28.90;99.90;;;;;;5090083;28;20398;-76
2022/10/30 11:23:56;;;;;;;12.90;6.90;;;29.10;99.90;;;;;;5091530;28;20401;-76
2022/10/30 11:26:21;;;;;;;12.93;6.80;;;29.40;99.90;;;;;;5089886;28;20409;-76
2022/10/30 11:28:53;;;;;;;12.90;7.10;;;29.50;99.90;;;;;;5089889;28;20434;-76
2022/10/30 11:31:33;;;;;;;13.25;6.93;;;29.50;99.90;;;;;;5090531;28;20775;-76
2022/10/30 11:34:17;;;;;;;13.32;6.35;;;29.20;99.90;;;;;;5089199;28;20428;-77
2022/10/30 11:36:48;;;;;;;12.73;6.25;;;28.80;99.90;;;;;;5090133;28;20911;-77
2022/10/30 11:39:20;;;;;;;16.43;6.53;;;28.60;99.90;;;;;;5090724;28;20470;-76
2022/10/30 11:41:55;;;;;;;16.27;6.10;;;28.60;99.90;;;;;;5100617;28;20422;-76
2022/10/30 11:44:24;;;;;;;12.75;6.13;;;28.70;99.90;;;;;;5092091;28;20425;-76
2022/10/30 11:46:49;;;;;;;12.97;5.60;;;28.80;99.90;;;;;;5089624;28;20398;-76
2022/10/30 11:49:31;;;;;;;14.35;6.57;;;28.80;99.90;;;;;;5090114;28;20414;-76
2022/10/30 11:51:58;;;;;;;13.27;6.50;;;28.60;99.90;;;;;;5091305;28;20409;-76
2022/10/30 11:54:25;;;;;;;13.17;6.33;;;28.40;99.90;;;;;;5092629;28;20402;-76
2022/10/30 11:56:53;;;;;;;12.40;6.30;;;27.60;99.90;;;;;;5078249;28;20406;-76
2022/10/30 11:59:21;;;;;;;14.97;6.30;;;26.80;99.90;;;;;;5089394;28;20745;-75
2022/10/30 12:02:02;;;;;;;12.00;6.35;;;26.00;99.90;;;;;;5090700;28;20536;-76
2022/10/30 12:04:31;;;;;;;13.80;6.20;;;25.30;99.90;;;;;;5090669;28;20424;-75
2022/10/30 12:07:07;;;;;;;17.00;6.95;;;24.90;99.90;;;;;;5089101;28;21029;-76
2022/10/30 12:09:44;;;;;;;14.63;6.50;;;24.40;99.90;;;;;;5088258;28;20525;-75
2022/10/30 12:12:35;;;;;;;16.88;6.95;;;24.00;99.90;;;;;;5090046;28;20406;-75
2022/10/30 12:15:34;;;;;;;13.90;6.30;;;23.60;99.90;;;;;;5076693;28;20446;-75
2022/10/30 12:18:07;;;;;;;13.25;5.85;;;23.30;99.90;;;;;;5072380;28;20410;-75
2022/10/30 12:20:36;;;;;;;11.38;6.32;;;23.00;99.90;;;;;;5088918;28;20836;-75
2022/10/30 12:23:28;;;;;;;14.57;6.00;;;22.90;99.90;;;;;;5089721;28;20432;-75
2022/10/30 12:25:57;;;;;;;14.37;6.30;;;22.90;99.90;;;;;;5077827;28;20418;-75
2022/10/30 12:28:29;;;;;;;15.23;6.07;;;22.90;99.90;;;;;;5089659;28;20428;-76
2022/10/30 12:31:04;;;;;;;12.30;5.63;;;22.90;99.90;;;;;;5087613;28;20412;-75
2022/10/30 12:33:41;;;;;;;14.83;5.37;;;22.90;99.90;;;;;;5089927;28;20812;-76
2022/10/30 12:36:18;;;;;;;13.23;5.47;;;22.80;99.90;;;;;;5089747;28;20424;-76
2022/10/30 12:38:49;;;;;;;12.40;5.88;;;22.80;99.90;;;;;;5088805;28;20473;-76
2022/10/30 12:41:41;;;;;;;14.27;5.90;;;22.90;99.90;;;;;;5089632;28;20492;-76